createdAt,value
2018-01-24T00:01:38.118Z,7.20
2018-01-24T00:04:06.379Z,7.20
2018-01-24T00:06:34.635Z,7.30
2018-01-24T00:09:02.907Z,7.20
2018-01-24T00:11:31.179Z,7.30
2018-01-24T00:14:00.336Z,7.30
2018-01-24T00:16:28.579Z,7.20
2018-01-24T00:18:56.859Z,7.20
2018-01-24T00:21:25.131Z,7.10
2018-01-24T00:23:53.413Z,7.00
2018-01-24T00:26:21.673Z,7.00
2018-01-24T00:28:49.951Z,6.90
2018-01-24T00:31:18.212Z,7.00
2018-01-24T00:33:47.262Z,7.10
2018-01-24T00:36:15.539Z,7.10
2018-01-24T00:38:43.832Z,7.20
2018-01-24T00:41:13.596Z,7.10
2018-01-24T00:43:41.909Z,7.10
2018-01-24T00:46:10.175Z,7.10
2018-01-24T00:48:38.433Z,7.20
2018-01-24T00:51:06.731Z,7.10
2018-01-24T00:53:35.123Z,7.20
2018-01-24T00:56:03.456Z,7.10
2018-01-24T00:58:31.718Z,7.10
2018-01-24T01:01:00.874Z,6.90
2018-01-24T01:03:29.160Z,6.90
2018-01-24T01:05:57.441Z,6.90
2018-01-24T01:08:25.704Z,6.90
2018-01-24T01:10:53.993Z,6.90
2018-01-24T01:13:22.258Z,6.70
2018-01-24T01:15:50.644Z,6.70
2018-01-24T01:18:18.907Z,6.70
2018-01-24T01:20:47.188Z,6.60
2018-01-24T01:23:15.451Z,6.60
2018-01-24T01:25:43.847Z,6.70
2018-01-24T01:28:12.101Z,6.80
2018-01-24T01:30:40.376Z,6.90
2018-01-24T01:33:08.664Z,6.80
2018-01-24T01:35:36.931Z,6.80
2018-01-24T01:38:05.215Z,6.80
2018-01-24T01:40:33.489Z,6.90
2018-01-24T01:43:01.767Z,6.90
2018-01-24T01:45:30.068Z,6.80
2018-01-24T01:47:58.324Z,6.80
2018-01-24T01:50:26.591Z,6.80
2018-01-24T01:52:54.882Z,6.90
2018-01-24T01:55:23.147Z,6.80
2018-01-24T01:57:51.437Z,6.80
2018-01-24T02:00:19.701Z,6.90
2018-01-24T02:02:47.984Z,6.90
2018-01-24T02:05:16.283Z,6.90
2018-01-24T02:07:44.572Z,7.00
2018-01-24T02:10:12.858Z,7.00
2018-01-24T02:12:42.634Z,7.10
2018-01-24T02:15:10.900Z,7.10
2018-01-24T02:17:39.204Z,7.00
2018-01-24T02:20:07.462Z,7.20
2018-01-24T02:22:35.731Z,7.20
2018-01-24T02:25:04.004Z,7.20
2018-01-24T02:27:32.305Z,7.00
2018-01-24T02:30:00.564Z,7.00
2018-01-24T02:32:28.844Z,6.90
2018-01-24T02:34:57.116Z,6.80
2018-01-24T02:37:25.394Z,6.80
2018-01-24T02:39:53.659Z,6.90
2018-01-24T02:42:21.948Z,6.90
2018-01-24T02:44:50.203Z,6.90
2018-01-24T02:47:18.477Z,6.80
2018-01-24T02:49:46.761Z,6.80
2018-01-24T02:52:15.180Z,6.90
2018-01-24T02:54:43.464Z,6.80
2018-01-24T02:57:11.737Z,6.80
2018-01-24T02:59:40.014Z,6.80
2018-01-24T03:02:08.289Z,6.80
2018-01-24T03:04:36.677Z,6.90
2018-01-24T03:07:04.963Z,7.00
2018-01-24T03:09:34.276Z,6.90
2018-01-24T03:12:02.527Z,6.90
2018-01-24T03:14:31.368Z,7.00
2018-01-24T03:17:00.396Z,6.90
2018-01-24T03:19:28.703Z,6.90
2018-01-24T03:21:56.969Z,7.00
2018-01-24T03:24:25.246Z,6.90
2018-01-24T03:26:53.530Z,6.90
2018-01-24T03:29:21.803Z,6.90
2018-01-24T03:31:50.182Z,7.00
2018-01-24T03:34:18.467Z,7.00
2018-01-24T03:36:47.499Z,7.10
2018-01-24T03:39:16.536Z,7.20
2018-01-24T03:41:44.931Z,7.10
2018-01-24T03:44:14.704Z,7.20
2018-01-24T03:46:42.992Z,7.20
2018-01-24T03:49:11.252Z,7.10
2018-01-24T03:51:39.527Z,7.10
2018-01-24T03:54:07.784Z,7.10
2018-01-24T03:56:36.845Z,7.00
2018-01-24T03:59:05.110Z,7.00
2018-01-24T04:01:33.396Z,7.00
2018-01-24T04:04:01.668Z,7.00
2018-01-24T04:06:29.927Z,7.00
2018-01-24T04:08:58.203Z,7.10
2018-01-24T04:11:26.464Z,7.00
2018-01-24T04:13:54.779Z,7.10
2018-01-24T04:16:23.035Z,7.20
2018-01-24T04:18:51.312Z,7.20
2018-01-24T04:21:19.603Z,7.10
2018-01-24T04:23:47.907Z,7.10
2018-01-24T04:26:16.461Z,7.20
2018-01-24T04:28:44.720Z,7.30
2018-01-24T04:31:12.970Z,7.30
2018-01-24T04:33:41.247Z,7.40
2018-01-24T04:36:10.271Z,7.30
2018-01-24T04:38:38.573Z,7.30
2018-01-24T04:41:06.827Z,7.40
2018-01-24T04:43:35.103Z,7.40
2018-01-24T04:46:03.383Z,7.40
2018-01-24T04:48:31.782Z,7.50
2018-01-24T04:51:00.036Z,7.50
2018-01-24T04:53:28.287Z,7.60
2018-01-24T04:55:56.555Z,7.60
2018-01-24T04:58:25.575Z,7.60
2018-01-24T05:00:53.847Z,7.60
2018-01-24T05:03:22.107Z,7.70
2018-01-24T05:05:51.156Z,7.60
2018-01-24T05:08:19.413Z,7.60
2018-01-24T05:10:47.700Z,7.60
2018-01-24T05:13:16.124Z,7.60
2018-01-24T05:15:45.288Z,7.70
2018-01-24T05:18:13.536Z,7.70
2018-01-24T05:20:44.408Z,7.60
2018-01-24T05:23:12.678Z,7.60
2018-01-24T05:25:40.939Z,7.60
2018-01-24T05:28:09.336Z,7.60
2018-01-24T05:30:37.614Z,7.60
2018-01-24T05:33:05.873Z,7.60
2018-01-24T05:35:34.166Z,7.60
2018-01-24T05:38:02.420Z,7.60
2018-01-24T05:40:30.721Z,7.60
2018-01-24T05:42:58.991Z,7.60
2018-01-24T05:45:27.576Z,7.60
2018-01-24T05:47:55.858Z,7.60
2018-01-24T05:50:24.111Z,7.50
2018-01-24T05:52:52.391Z,7.50
2018-01-24T05:55:20.646Z,7.60
2018-01-24T05:57:48.920Z,7.60
2018-01-24T06:00:17.173Z,7.60
2018-01-24T06:02:45.454Z,7.60
2018-01-24T06:05:14.873Z,7.60
2018-01-24T06:07:43.916Z,7.50
2018-01-24T06:10:12.175Z,7.50
2018-01-24T06:12:40.503Z,7.50
2018-01-24T06:15:08.763Z,7.50
2018-01-24T06:17:37.043Z,7.50
2018-01-24T06:20:05.290Z,7.60
2018-01-24T06:22:33.902Z,7.60
2018-01-24T06:25:02.284Z,7.60
2018-01-24T06:27:30.763Z,7.60
2018-01-24T06:29:59.071Z,7.60
2018-01-24T06:32:27.337Z,7.70
2018-01-24T06:34:55.800Z,7.70
2018-01-24T06:37:24.068Z,7.70
2018-01-24T06:39:52.375Z,7.70
2018-01-24T06:42:20.698Z,7.70
2018-01-24T06:44:48.969Z,7.70
2018-01-24T06:47:17.243Z,7.70
2018-01-24T06:49:45.504Z,7.70
2018-01-24T06:52:14.543Z,7.70
2018-01-24T06:54:42.806Z,7.70
2018-01-24T06:57:11.080Z,7.70
2018-01-24T06:59:39.398Z,7.70
2018-01-24T07:02:07.768Z,7.70
2018-01-24T07:04:36.458Z,7.70
2018-01-24T07:07:04.730Z,7.70
2018-01-24T07:09:32.984Z,7.70
2018-01-24T07:12:13.267Z,7.80
2018-01-24T07:14:42.294Z,7.80
2018-01-24T07:17:10.580Z,7.80
2018-01-24T07:19:39.632Z,7.80
2018-01-24T07:22:07.893Z,7.80
2018-01-24T07:24:36.185Z,7.90
2018-01-24T07:27:04.465Z,7.90
2018-01-24T07:29:32.732Z,7.90
2018-01-24T07:32:01.001Z,8.00
2018-01-24T07:34:29.275Z,8.00
2018-01-24T07:36:57.524Z,8.00
2018-01-24T07:39:25.848Z,8.10
2018-01-24T07:41:54.104Z,8.10
2018-01-24T07:44:22.396Z,8.20
2018-01-24T07:46:50.780Z,8.30
2018-01-24T07:49:19.162Z,8.30
2018-01-24T07:51:47.407Z,8.30
2018-01-24T07:54:15.691Z,8.40
2018-01-24T07:56:43.953Z,8.40
2018-01-24T07:59:13.004Z,8.60
2018-01-24T08:01:41.275Z,8.60
2018-01-24T08:04:09.534Z,8.60
2018-01-24T08:06:37.854Z,8.60
2018-01-24T08:09:06.891Z,8.70
2018-01-24T08:11:35.168Z,8.70
2018-01-24T08:14:03.427Z,8.70
2018-01-24T08:16:32.442Z,8.90
2018-01-24T08:19:00.728Z,8.90
2018-01-24T08:21:28.974Z,8.90
2018-01-24T08:23:58.047Z,9.10
2018-01-24T08:26:26.285Z,9.10
2018-01-24T08:28:54.567Z,9.20
2018-01-24T08:31:22.825Z,9.10
2018-01-24T08:33:51.131Z,9.00
2018-01-24T08:36:19.407Z,9.00
2018-01-24T08:38:47.787Z,9.00
2018-01-24T08:41:16.036Z,8.90
2018-01-24T08:43:44.357Z,8.90
2018-01-24T08:46:12.823Z,8.90
2018-01-24T08:48:41.060Z,8.90
2018-01-24T08:51:09.332Z,9.00
2018-01-24T08:53:37.589Z,9.00
2018-01-24T08:56:06.635Z,9.00
2018-01-24T08:58:34.898Z,9.00
2018-01-24T09:01:20.792Z,9.00
2018-01-24T09:04:06.701Z,9.00
2018-01-24T09:06:52.723Z,9.00
2018-01-24T09:09:38.624Z,9.00
2018-01-24T09:12:25.352Z,9.10
2018-01-24T09:15:11.340Z,9.10
2018-01-24T09:17:58.160Z,9.30
2018-01-24T09:20:44.323Z,9.30
2018-01-24T09:23:20.763Z,9.40
2018-01-24T09:25:49.021Z,9.50
2018-01-24T09:28:17.291Z,9.60
2018-01-24T09:30:45.555Z,9.60
2018-01-24T09:33:13.823Z,9.70
2018-01-24T09:35:42.851Z,9.90
2018-01-24T09:38:11.133Z,9.90
2018-01-24T09:40:39.396Z,9.80
2018-01-24T09:43:07.648Z,9.80
2018-01-24T09:45:36.683Z,10.10
2018-01-24T09:48:04.948Z,10.00
2018-01-24T09:50:33.212Z,10.20
2018-01-24T09:53:01.489Z,10.30
2018-01-24T09:55:29.767Z,10.60
2018-01-24T09:57:58.061Z,10.60
2018-01-24T10:00:26.319Z,10.80
2018-01-24T10:02:54.739Z,10.90
2018-01-24T10:05:23.119Z,11.00
2018-01-24T10:07:51.399Z,11.10
2018-01-24T10:10:19.655Z,11.10
2018-01-24T10:12:47.956Z,11.10
2018-01-24T10:15:16.239Z,11.10
2018-01-24T10:17:44.511Z,11.20
2018-01-24T10:20:12.805Z,11.30
2018-01-24T10:22:41.057Z,11.20
2018-01-24T10:25:09.435Z,11.20
2018-01-24T10:27:37.679Z,11.40
2018-01-24T10:30:05.994Z,11.50
2018-01-24T10:32:34.247Z,11.40
2018-01-24T10:35:02.545Z,11.40
2018-01-24T10:37:30.793Z,11.40
2018-01-24T10:39:59.099Z,11.40
2018-01-24T10:42:27.361Z,11.50
2018-01-24T10:44:55.961Z,11.60
2018-01-24T10:47:24.332Z,11.80
2018-01-24T10:49:52.720Z,11.90
2018-01-24T10:52:20.996Z,11.90
2018-01-24T10:54:49.276Z,12.00
2018-01-24T10:57:17.533Z,12.00
2018-01-24T10:59:45.810Z,12.10
2018-01-24T11:02:14.360Z,12.00
2018-01-24T11:04:42.643Z,12.00
2018-01-24T11:07:10.899Z,12.00
2018-01-24T11:09:39.954Z,11.80
2018-01-24T11:12:08.220Z,11.80
2018-01-24T11:14:36.515Z,11.90
2018-01-24T11:17:04.788Z,11.90
2018-01-24T11:19:33.035Z,12.00
2018-01-24T11:22:01.325Z,11.90
2018-01-24T11:24:29.692Z,11.80
2018-01-24T11:26:57.970Z,11.70
2018-01-24T11:29:26.232Z,11.70
2018-01-24T11:31:54.548Z,11.60
2018-01-24T11:34:22.806Z,11.60
2018-01-24T11:36:51.075Z,11.50
2018-01-24T11:39:19.339Z,11.40
2018-01-24T11:41:47.626Z,11.40
2018-01-24T11:44:15.933Z,11.40
2018-01-24T11:46:44.321Z,11.40
2018-01-24T11:49:12.594Z,11.30
2018-01-24T11:51:40.871Z,11.30
2018-01-24T11:54:09.156Z,11.30
2018-01-24T11:56:37.424Z,11.30
2018-01-24T11:59:05.704Z,11.30
2018-01-24T12:01:34.083Z,11.30
2018-01-24T12:04:02.351Z,11.30
2018-01-24T12:06:30.743Z,11.40
2018-01-24T12:08:59.017Z,11.40
2018-01-24T12:11:27.295Z,11.40
2018-01-24T12:13:55.555Z,11.40
2018-01-24T12:16:23.843Z,11.40
2018-01-24T12:18:52.336Z,11.50
2018-01-24T12:21:20.618Z,11.50
2018-01-24T12:23:48.896Z,11.50
2018-01-24T12:26:17.172Z,11.60
2018-01-24T12:28:45.428Z,11.60
2018-01-24T12:31:13.699Z,11.60
2018-01-24T12:33:42.095Z,11.60
2018-01-24T12:36:10.372Z,11.70
2018-01-24T12:38:38.649Z,11.60
2018-01-24T12:41:06.915Z,11.60
2018-01-24T12:43:35.198Z,11.70
2018-01-24T12:46:03.476Z,11.80
2018-01-24T12:48:31.768Z,11.80
2018-01-24T12:51:00.036Z,11.80
2018-01-24T12:53:28.313Z,11.90
2018-01-24T12:55:56.571Z,11.80
2018-01-24T12:58:24.864Z,11.80
2018-01-24T13:00:53.113Z,11.90
2018-01-24T13:03:21.385Z,11.80
2018-01-24T13:05:49.647Z,12.00
2018-01-24T13:08:18.790Z,11.90
2018-01-24T13:10:47.075Z,11.80
2018-01-24T13:13:15.486Z,11.80
2018-01-24T13:15:45.233Z,11.60
2018-01-24T13:18:13.503Z,11.60
2018-01-24T13:20:41.771Z,11.60
2018-01-24T13:23:10.052Z,11.60
2018-01-24T13:25:38.368Z,11.60
2018-01-24T13:28:06.642Z,11.60
2018-01-24T13:30:34.918Z,11.60
2018-01-24T13:33:03.192Z,11.50
2018-01-24T13:35:31.447Z,11.80
2018-01-24T13:37:59.748Z,11.90
2018-01-24T13:40:28.027Z,11.80
2018-01-24T13:42:56.312Z,11.70
2018-01-24T13:45:24.555Z,11.80
2018-01-24T13:47:52.872Z,11.60
2018-01-24T13:50:21.218Z,11.70
2018-01-24T13:52:49.514Z,11.70
2018-01-24T13:55:17.796Z,11.60
2018-01-24T13:57:46.075Z,11.60
2018-01-24T14:00:14.347Z,11.50
2018-01-24T14:02:42.724Z,11.50
2018-01-24T14:05:11.006Z,11.40
2018-01-24T14:07:39.252Z,11.40
2018-01-24T14:10:07.523Z,11.50
2018-01-24T14:12:35.938Z,11.40
2018-01-24T14:15:04.214Z,11.40
2018-01-24T14:17:32.467Z,11.40
2018-01-24T14:20:00.773Z,11.40
2018-01-24T14:22:29.042Z,11.30
2018-01-24T14:24:57.421Z,11.40
2018-01-24T14:27:25.676Z,11.30
2018-01-24T14:29:53.974Z,11.30
2018-01-24T14:32:22.223Z,11.40
2018-01-24T14:34:50.524Z,11.30
2018-01-24T14:37:18.804Z,11.20
2018-01-24T14:39:47.091Z,11.20
2018-01-24T14:42:15.360Z,11.30
2018-01-24T14:44:43.679Z,11.30
2018-01-24T14:47:11.917Z,11.30
2018-01-24T14:49:40.297Z,11.30
2018-01-24T14:52:09.161Z,11.30
2018-01-24T14:54:37.438Z,11.20
2018-01-24T14:57:05.730Z,11.20
2018-01-24T14:59:34.124Z,11.20
2018-01-24T15:02:02.384Z,11.20
2018-01-24T15:04:30.664Z,11.20
2018-01-24T15:06:58.924Z,11.10
2018-01-24T15:09:27.209Z,11.10
2018-01-24T15:11:55.468Z,11.10
2018-01-24T15:14:23.748Z,11.00
2018-01-24T15:16:52.091Z,11.00
2018-01-24T15:19:21.156Z,11.00
2018-01-24T15:21:49.432Z,10.90
2018-01-24T15:24:18.430Z,10.90
2018-01-24T15:26:46.678Z,10.90
2018-01-24T15:29:15.088Z,10.90
2018-01-24T15:31:43.361Z,10.80
2018-01-24T15:34:11.625Z,10.80
2018-01-24T15:36:41.007Z,10.70
2018-01-24T15:39:10.162Z,10.70
2018-01-24T15:41:38.451Z,10.70
2018-01-24T15:44:08.333Z,10.60
2018-01-24T15:46:36.609Z,10.60
2018-01-24T15:49:04.990Z,10.50
2018-01-24T15:51:33.244Z,10.50
2018-01-24T15:54:01.504Z,10.50
2018-01-24T15:56:30.029Z,10.40
2018-01-24T15:58:58.296Z,10.40
2018-01-24T16:01:26.639Z,10.40
2018-01-24T16:03:55.651Z,10.30
2018-01-24T16:06:23.931Z,10.30
2018-01-24T16:08:52.192Z,10.30
2018-01-24T16:11:20.611Z,10.30
2018-01-24T16:13:48.988Z,10.20
2018-01-24T16:16:17.266Z,10.20
2018-01-24T16:18:45.524Z,10.20
2018-01-24T16:21:13.836Z,10.20
2018-01-24T16:23:42.095Z,10.20
2018-01-24T16:26:10.483Z,10.20
2018-01-24T16:28:38.750Z,10.20
2018-01-24T16:31:07.119Z,10.20
2018-01-24T16:33:35.385Z,10.20
2018-01-24T16:36:03.655Z,10.20
2018-01-24T16:38:31.909Z,10.20
2018-01-24T16:41:00.179Z,10.20
2018-01-24T16:43:29.207Z,10.20
2018-01-24T16:45:57.492Z,10.20
2018-01-24T16:48:25.798Z,10.20
2018-01-24T16:50:54.075Z,10.20
2018-01-24T16:53:22.452Z,10.20
2018-01-24T16:55:50.812Z,10.20
2018-01-24T16:58:19.098Z,10.20
2018-01-24T17:00:47.347Z,10.30
2018-01-24T17:03:15.655Z,10.30
2018-01-24T17:05:43.960Z,10.30
2018-01-24T17:08:12.315Z,10.30
2018-01-24T17:10:40.695Z,10.30
2018-01-24T17:13:09.072Z,10.30
2018-01-24T17:15:37.316Z,10.30
2018-01-24T17:18:05.597Z,10.30
2018-01-24T17:20:33.851Z,10.30
2018-01-24T17:23:02.132Z,10.20
2018-01-24T17:25:30.415Z,10.30
2018-01-24T17:27:58.700Z,10.20
2018-01-24T17:30:26.955Z,10.20
2018-01-24T17:32:55.268Z,10.20
2018-01-24T17:35:23.524Z,10.20
2018-01-24T17:37:51.812Z,10.10
2018-01-24T17:40:20.122Z,10.10
2018-01-24T17:42:48.413Z,10.10
2018-01-24T17:45:16.676Z,10.10
2018-01-24T17:47:45.048Z,10.10
2018-01-24T17:50:13.334Z,10.00
2018-01-24T17:52:41.603Z,10.10
2018-01-24T17:55:09.984Z,10.00
2018-01-24T17:57:38.249Z,10.10
2018-01-24T18:00:06.508Z,10.10
2018-01-24T18:02:34.917Z,10.10
2018-01-24T18:05:03.192Z,10.10
2018-01-24T18:07:31.574Z,10.00
2018-01-24T18:09:59.823Z,10.00
2018-01-24T18:12:28.107Z,10.00
2018-01-24T18:14:56.371Z,10.00
2018-01-24T18:17:24.667Z,10.00
2018-01-24T18:19:52.924Z,9.90
2018-01-24T18:22:21.183Z,9.90
2018-01-24T18:24:49.463Z,9.90
2018-01-24T18:27:18.477Z,9.80
2018-01-24T18:29:46.990Z,9.80
2018-01-24T18:32:15.261Z,9.80
2018-01-24T18:34:43.542Z,9.80
2018-01-24T18:37:11.791Z,9.80
2018-01-24T18:39:40.084Z,9.70
2018-01-24T18:42:08.330Z,9.70
2018-01-24T18:44:37.354Z,9.70
2018-01-24T18:47:05.611Z,9.70
2018-01-24T18:49:33.891Z,9.70
2018-01-24T18:52:02.158Z,9.60
2018-01-24T18:54:30.451Z,9.60
2018-01-24T18:56:58.704Z,9.60
2018-01-24T18:59:26.980Z,9.60
2018-01-24T19:01:55.401Z,9.60
2018-01-24T19:04:23.685Z,9.60
2018-01-24T19:06:51.942Z,9.60
2018-01-24T19:09:20.215Z,9.60
2018-01-24T19:11:48.476Z,9.70
2018-01-24T19:14:16.768Z,9.70
2018-01-24T19:16:45.070Z,9.70
2018-01-24T19:19:13.451Z,9.80
2018-01-24T19:21:41.830Z,9.90
2018-01-24T19:24:10.091Z,9.90
2018-01-24T19:26:38.356Z,9.90
2018-01-24T19:29:06.629Z,9.90
2018-01-24T19:31:34.878Z,10.00
2018-01-24T19:34:04.033Z,10.00
2018-01-24T19:36:32.289Z,10.00
2018-01-24T19:39:00.580Z,10.00
2018-01-24T19:41:28.865Z,10.00
2018-01-24T19:43:58.172Z,10.00
2018-01-24T19:46:27.379Z,10.00
2018-01-24T19:48:56.460Z,10.00
2018-01-24T19:51:24.713Z,10.00
2018-01-24T19:53:53.010Z,10.10
2018-01-24T19:56:21.292Z,10.10
2018-01-24T19:58:49.711Z,10.10
2018-01-24T20:01:18.049Z,10.10
2018-01-24T20:03:46.395Z,10.10
2018-01-24T20:06:14.767Z,10.20
2018-01-24T20:08:43.086Z,10.20
2018-01-24T20:11:11.359Z,10.20
2018-01-24T20:13:39.633Z,10.20
2018-01-24T20:16:07.919Z,10.20
2018-01-24T20:18:36.174Z,10.20
2018-01-24T20:21:04.455Z,10.20
2018-01-24T20:23:32.736Z,10.20
2018-01-24T20:26:01.011Z,10.20
2018-01-24T20:28:29.407Z,10.20
2018-01-24T20:30:57.682Z,10.20
2018-01-24T20:33:26.064Z,10.20
2018-01-24T20:35:54.331Z,10.20
2018-01-24T20:38:22.621Z,10.20
2018-01-24T20:40:50.905Z,10.20
2018-01-24T20:43:19.275Z,10.20
2018-01-24T20:45:47.580Z,10.20
2018-01-24T20:48:15.930Z,10.20
2018-01-24T20:50:44.206Z,10.20
2018-01-24T20:53:12.490Z,10.20
2018-01-24T20:55:40.740Z,10.20
2018-01-24T20:58:09.030Z,10.20
2018-01-24T21:00:37.298Z,10.20
2018-01-24T21:03:05.597Z,10.30
2018-01-24T21:05:33.872Z,10.30
2018-01-24T21:08:02.163Z,10.30
2018-01-24T21:10:30.424Z,10.40
2018-01-24T21:12:58.704Z,10.40
2018-01-24T21:15:27.098Z,10.40
2018-01-24T21:17:55.395Z,10.50
2018-01-24T21:20:23.639Z,10.50
2018-01-24T21:22:52.015Z,10.50
2018-01-24T21:25:20.291Z,10.40
2018-01-24T21:27:48.581Z,10.50
2018-01-24T21:30:21.788Z,10.50
2018-01-24T21:33:02.024Z,10.50
2018-01-24T21:35:42.271Z,10.40
2018-01-24T21:38:10.654Z,10.40
2018-01-24T21:40:38.936Z,10.40
2018-01-24T21:43:07.211Z,10.40
2018-01-24T21:45:35.584Z,10.40
2018-01-24T21:48:03.969Z,10.50
2018-01-24T21:50:32.235Z,10.40
2018-01-24T21:53:00.620Z,10.40
2018-01-24T21:55:28.871Z,10.40
2018-01-24T21:57:57.163Z,10.40
2018-01-24T22:00:25.564Z,10.30
2018-01-24T22:02:53.816Z,10.30
2018-01-24T22:05:22.102Z,10.30
2018-01-24T22:07:50.360Z,10.30
2018-01-24T22:10:18.639Z,10.30
2018-01-24T22:12:46.903Z,10.30
2018-01-24T22:15:15.192Z,10.30
2018-01-24T22:17:43.466Z,10.20
2018-01-24T22:22:46.235Z,10.30
2018-01-24T22:25:14.580Z,10.30
2018-01-24T22:27:42.955Z,10.30
2018-01-24T22:30:11.457Z,10.30
2018-01-24T22:32:39.945Z,10.30
2018-01-24T22:35:08.523Z,10.30
2018-01-24T22:37:36.792Z,10.40
2018-01-24T22:40:06.028Z,10.40
2018-01-24T22:42:35.080Z,10.40
2018-01-24T22:45:03.415Z,10.40
2018-01-24T22:47:31.761Z,10.40
2018-01-24T22:50:00.149Z,10.40
2018-01-24T22:52:29.159Z,10.40
2018-01-24T22:54:57.433Z,10.30
2018-01-24T22:57:25.696Z,10.40
2018-01-24T22:59:54.756Z,10.40
2018-01-24T23:02:23.035Z,10.40
2018-01-24T23:04:51.323Z,10.40
2018-01-24T23:07:19.590Z,10.30
2018-01-24T23:09:47.854Z,10.30
2018-01-24T23:12:16.246Z,10.30
2018-01-24T23:14:44.541Z,10.30
2018-01-24T23:17:14.341Z,10.20
2018-01-24T23:19:42.618Z,10.20
2018-01-24T23:22:10.917Z,10.30
2018-01-24T23:24:39.200Z,10.30
2018-01-24T23:27:08.263Z,10.30
2018-01-24T23:29:36.543Z,10.30
2018-01-24T23:32:04.837Z,10.30
2018-01-24T23:34:33.160Z,10.30
2018-01-24T23:37:02.195Z,10.30
2018-01-24T23:39:30.572Z,10.30
2018-01-24T23:41:58.968Z,10.20
2018-01-24T23:44:27.331Z,10.30
2018-01-24T23:46:55.734Z,10.30
2018-01-24T23:49:24.772Z,10.20
2018-01-24T23:51:53.095Z,10.20
2018-01-24T23:54:21.564Z,10.20
2018-01-24T23:56:49.940Z,10.20
2018-01-24T23:59:18.215Z,10.10
